createdAt,value
2018-11-22T12:28:24.661Z,8.87
2018-11-22T12:30:53.521Z,9.37
2018-11-22T12:33:40.846Z,9.10
2018-11-22T12:36:15.056Z,8.70
2018-11-22T12:56:39.385Z,8.97
2018-11-22T13:17:05.807Z,8.93
2018-11-22T13:37:30.832Z,9.07
2018-11-22T13:57:55.310Z,7.73
2018-11-22T14:07:47.283Z,9.07
2018-11-22T14:10:22.306Z,9.17
2018-11-22T14:12:51.400Z,10.03
2018-11-22T14:15:23.046Z,8.53
2018-11-22T14:17:53.975Z,9.37
2018-11-22T14:20:30.103Z,8.20
2018-11-22T14:22:58.943Z,8.33
2018-11-22T14:25:28.215Z,8.87
2018-11-22T14:27:57.106Z,9.53
2018-11-22T14:30:29.164Z,9.27
2018-11-22T14:32:58.031Z,9.03
2018-11-22T14:35:27.559Z,9.07
2018-11-22T14:37:56.391Z,8.63
2018-11-22T14:40:30.412Z,8.80
2018-11-22T14:42:59.287Z,9.07
2018-11-22T14:45:29.511Z,9.30
2018-11-22T14:48:00.039Z,8.53
2018-11-22T14:50:34.948Z,8.20
2018-11-22T14:53:12.251Z,8.70
2018-11-22T14:55:41.151Z,9.13
2018-11-22T14:58:10.706Z,8.70
2018-11-22T15:00:39.640Z,9.30
2018-11-22T15:03:08.542Z,8.30
2018-11-22T15:05:37.378Z,9.73
2018-11-22T15:26:38.879Z,8.40
2018-11-22T15:47:03.994Z,8.63
2018-11-22T16:07:28.231Z,8.07
2018-11-22T16:27:53.214Z,9.07
2018-11-22T16:48:17.626Z,7.80
2018-11-22T16:50:46.470Z,8.27
2018-11-22T17:10:25.458Z,9.20
2018-11-22T17:12:56.084Z,8.00
2018-11-22T17:15:28.488Z,8.90
2018-11-22T17:17:58.683Z,8.93
2018-11-22T17:20:29.367Z,9.83
2018-11-22T17:22:58.226Z,8.20
2018-11-22T17:25:28.534Z,8.70
2018-11-22T17:27:59.606Z,9.90
2018-11-22T17:30:32.071Z,8.90
2018-11-22T17:33:00.919Z,8.77
2018-11-22T17:35:30.538Z,8.20
2018-11-22T17:38:00.892Z,8.27
2018-11-22T17:40:36.322Z,8.80
2018-11-22T17:43:06.108Z,9.13
2018-11-22T17:45:47.322Z,9.30
2018-11-22T17:48:16.173Z,9.53
2018-11-22T17:50:46.523Z,9.77
2018-11-22T17:53:15.852Z,9.27
2018-11-22T17:55:44.766Z,8.87
2018-11-22T17:58:14.530Z,9.13
2018-11-22T18:00:50.412Z,9.23
2018-11-22T18:03:19.771Z,9.23
2018-11-22T18:05:49.666Z,8.30
2018-11-22T18:26:51.028Z,8.87
2018-11-22T18:47:16.004Z,9.10
2018-11-22T19:11:25.604Z,9.37
2018-11-22T19:13:54.455Z,9.37
2018-11-22T19:16:23.350Z,9.90
2018-11-22T19:36:48.678Z,8.83
2018-11-22T19:57:12.224Z,9.17
2018-11-22T20:17:36.851Z,8.27
2018-11-22T20:38:01.773Z,8.10
2018-11-22T20:58:26.187Z,8.17
2018-11-22T21:00:55.439Z,8.03
2018-11-22T21:03:24.310Z,8.70
2018-11-22T21:05:53.162Z,8.20
2018-11-22T21:26:17.082Z,8.20
2018-11-22T21:46:41.415Z,8.20
2018-11-22T22:07:06.276Z,7.87
2018-11-22T22:27:30.466Z,7.87
2018-11-22T22:47:55.904Z,6.97
2018-11-22T23:08:21.144Z,7.30
2018-11-22T23:10:49.983Z,6.53
2018-11-22T23:13:18.860Z,7.07
2018-11-22T23:15:47.735Z,7.27
2018-11-22T23:18:16.594Z,7.03
2018-11-22T23:20:45.441Z,7.00
2018-11-22T23:41:09.201Z,6.90
2018-11-22T23:43:38.254Z,7.70
2018-11-22T23:46:07.095Z,6.83
